Time;durP1;ratioP1;P1;durP2;ratioP2;P2;SDS_P1;SDS_P2;PMS_P1;PMS_P2;Temp;Humidity;BMP_temperature;BMP_pressure;BME280_temperature;BME280_humidity;BME280_pressure;Samples;Min_cycle;Max_cycle;Signal;HPM_P1;HPM_P2
2023/10/25 00:01:55;;;;;;;10.00;6.73;;;;;;;;;;5029589;28;20186;-66
2023/10/25 00:04:20;;;;;;;11.77;7.03;;;;;;;;;;5032480;28;20209;-66
2023/10/25 00:06:45;;;;;;;13.43;7.47;;;;;;;;;;5032930;28;20175;-66
2023/10/25 00:09:10;;;;;;;11.10;7.03;;;;;;;;;;5030220;28;20178;-66
2023/10/25 00:11:35;;;;;;;11.47;6.60;;;;;;;;;;5032885;28;20569;-66
2023/10/25 00:14:03;;;;;;;14.90;7.87;;;;;;;;;;5032869;28;20233;-66
2023/10/25 00:16:28;;;;;;;11.27;7.43;;;;;;;;;;5031917;28;20186;-66
2023/10/25 00:18:53;;;;;;;8.73;6.63;;;;;;;;;;5029643;28;20670;-66
2023/10/25 00:21:18;;;;;;;14.67;8.13;;;;;;;;;;5033146;28;20803;-66
2023/10/25 00:23:44;;;;;;;11.63;7.17;;;;;;;;;;5032345;28;20206;-66
2023/10/25 00:26:10;;;;;;;16.60;7.47;;;;;;;;;;5026741;28;20182;-66
2023/10/25 00:28:35;;;;;;;13.13;8.63;;;;;;;;;;5032154;28;20174;-66
2023/10/25 00:31:00;;;;;;;11.83;8.20;;;;;;;;;;5032375;28;20288;-65
2023/10/25 00:33:26;;;;;;;14.33;9.10;;;;;;;;;;5030946;28;20676;-66
2023/10/25 00:35:51;;;;;;;13.47;8.73;;;;;;;;;;5032660;28;20186;-65
2023/10/25 00:38:16;;;;;;;12.93;8.43;;;;;;;;;;5030419;28;20178;-65
2023/10/25 00:40:41;;;;;;;13.20;7.90;;;;;;;;;;5032682;28;20174;-65
2023/10/25 00:43:14;;;;;;;10.17;7.23;;;;;;;;;;5032097;28;20210;-65
2023/10/25 00:45:44;;;;;;;12.47;7.17;;;;;;;;;;5032328;28;20266;-65
2023/10/25 00:48:09;;;;;;;13.57;8.23;;;;;;;;;;5032426;28;20186;-66
2023/10/25 00:50:34;;;;;;;12.63;7.20;;;;;;;;;;5031358;28;20233;-65
2023/10/25 00:52:59;;;;;;;11.37;7.20;;;;;;;;;;5032732;28;20273;-65
2023/10/25 00:55:24;;;;;;;14.43;7.80;;;;;;;;;;5031404;28;20240;-66
2023/10/25 00:57:50;;;;;;;12.90;7.57;;;;;;;;;;5032421;28;20209;-66
2023/10/25 01:00:15;;;;;;;12.27;7.40;;;;;;;;;;5027547;28;20174;-66
2023/10/25 01:02:40;;;;;;;15.17;8.20;;;;;;;;;;5032229;28;20206;-66
2023/10/25 01:05:05;;;;;;;11.77;6.70;;;;;;;;;;5032368;28;20170;-65
2023/10/25 01:07:31;;;;;;;13.07;7.53;;;;;;;;;;5032104;28;20304;-65
2023/10/25 01:09:56;;;;;;;10.83;7.00;;;;;;;;;;5039578;28;20197;-66
2023/10/25 01:12:21;;;;;;;12.47;8.90;;;;;;;;;;5031382;28;20210;-65
2023/10/25 01:14:48;;;;;;;11.83;7.67;;;;;;;;;;5032267;28;20616;-66
2023/10/25 01:17:14;;;;;;;14.97;8.60;;;;;;;;;;5031522;28;20595;-66
2023/10/25 01:19:39;;;;;;;13.03;8.20;;;;;;;;;;5032246;28;20174;-65
2023/10/25 01:22:04;;;;;;;12.67;8.07;;;;;;;;;;5031944;28;20184;-65
2023/10/25 01:24:29;;;;;;;12.67;7.23;;;;;;;;;;5032177;28;20201;-65
2023/10/25 01:26:54;;;;;;;12.33;7.87;;;;;;;;;;5031682;28;20721;-66
2023/10/25 01:29:20;;;;;;;8.83;6.67;;;;;;;;;;5030311;28;20178;-65
2023/10/25 01:31:45;;;;;;;11.40;7.20;;;;;;;;;;5031241;28;20230;-65
2023/10/25 01:34:10;;;;;;;12.00;7.23;;;;;;;;;;5029806;28;20237;-66
2023/10/25 01:36:35;;;;;;;13.00;7.57;;;;;;;;;;5030332;28;20178;-65
2023/10/25 01:39:00;;;;;;;13.67;7.13;;;;;;;;;;5028608;28;20182;-66
2023/10/25 01:41:26;;;;;;;13.07;7.60;;;;;;;;;;5030695;28;20567;-65
2023/10/25 01:43:51;;;;;;;10.90;7.00;;;;;;;;;;5031577;28;20195;-65
2023/10/25 01:46:16;;;;;;;13.70;6.40;;;;;;;;;;5031532;28;20182;-66
2023/10/25 01:48:43;;;;;;;11.90;7.47;;;;;;;;;;5031542;28;20638;-66
2023/10/25 01:51:09;;;;;;;14.10;7.37;;;;;;;;;;5031503;28;20205;-66
2023/10/25 01:53:35;;;;;;;10.37;7.87;;;;;;;;;;5031271;28;20576;-66
2023/10/25 01:56:00;;;;;;;12.27;7.27;;;;;;;;;;5031677;28;20183;-66
2023/10/25 01:58:25;;;;;;;11.70;7.50;;;;;;;;;;5027958;28;20376;-66
2023/10/25 02:00:50;;;;;;;11.73;7.00;;;;;;;;;;5030080;28;20182;-66
2023/10/25 02:03:16;;;;;;;12.33;7.13;;;;;;;;;;5031308;28;20206;-66
2023/10/25 02:05:41;;;;;;;8.43;6.17;;;;;;;;;;5028803;28;20187;-66
2023/10/25 02:08:06;;;;;;;15.67;8.03;;;;;;;;;;5030453;28;20274;-66
2023/10/25 02:10:32;;;;;;;12.80;7.10;;;;;;;;;;5029844;28;20247;-66
2023/10/25 02:12:57;;;;;;;10.97;7.00;;;;;;;;;;5030258;28;20628;-66
2023/10/25 02:15:22;;;;;;;10.57;6.90;;;;;;;;;;5030123;28;20551;-66
2023/10/25 02:17:47;;;;;;;8.90;7.07;;;;;;;;;;5031278;28;20167;-66
2023/10/25 02:20:13;;;;;;;11.60;6.67;;;;;;;;;;5028378;28;20193;-66
2023/10/25 02:22:38;;;;;;;12.13;6.87;;;;;;;;;;5028925;28;20265;-66
2023/10/25 02:25:03;;;;;;;13.30;6.27;;;;;;;;;;5030255;28;20653;-66
2023/10/25 02:27:28;;;;;;;13.37;6.80;;;;;;;;;;5031036;28;20178;-66
2023/10/25 02:29:54;;;;;;;10.33;6.33;;;;;;;;;;5030312;28;20174;-66
2023/10/25 02:32:19;;;;;;;9.33;6.30;;;;;;;;;;5030202;28;20210;-66
2023/10/25 02:34:44;;;;;;;12.30;6.60;;;;;;;;;;5029408;28;20587;-66
2023/10/25 02:37:10;;;;;;;13.53;7.00;;;;;;;;;;5028388;28;20187;-66
2023/10/25 02:39:37;;;;;;;9.93;5.63;;;;;;;;;;5030073;28;20265;-66
2023/10/25 02:42:02;;;;;;;10.47;6.40;;;;;;;;;;5029951;28;20182;-66
2023/10/25 02:44:27;;;;;;;10.17;6.33;;;;;;;;;;5030208;28;20205;-66
2023/10/25 02:46:55;;;;;;;12.87;6.57;;;;;;;;;;5030136;28;20608;-66
2023/10/25 02:49:20;;;;;;;9.93;6.33;;;;;;;;;;5030091;28;20248;-66
2023/10/25 02:51:45;;;;;;;24.03;6.70;;;;;;;;;;5029442;28;20198;-66
2023/10/25 02:54:10;;;;;;;12.43;6.00;;;;;;;;;;5029535;28;20205;-66
2023/10/25 02:56:35;;;;;;;10.47;6.43;;;;;;;;;;5029491;28;20612;-66
2023/10/25 02:59:01;;;;;;;9.07;5.67;;;;;;;;;;5029071;28;20197;-66
2023/10/25 03:01:26;;;;;;;8.93;6.63;;;;;;;;;;5030283;28;20174;-66
2023/10/25 03:03:52;;;;;;;13.67;6.43;;;;;;;;;;5026887;28;20704;-66
2023/10/25 03:06:17;;;;;;;9.13;5.33;;;;;;;;;;5030269;28;20231;-66
2023/10/25 03:08:42;;;;;;;11.77;6.73;;;;;;;;;;5030436;28;20608;-66
2023/10/25 03:11:08;;;;;;;16.40;5.77;;;;;;;;;;5030345;28;20925;-66
2023/10/25 03:13:33;;;;;;;11.20;5.50;;;;;;;;;;5030273;28;20222;-66
2023/10/25 03:15:58;;;;;;;8.23;5.23;;;;;;;;;;5030268;28;20650;-66
2023/10/25 03:18:23;;;;;;;11.37;5.30;;;;;;;;;;5029262;28;20185;-66
2023/10/25 03:20:48;;;;;;;10.77;5.60;;;;;;;;;;5030427;28;20178;-66
2023/10/25 03:23:14;;;;;;;9.60;6.10;;;;;;;;;;5030295;28;20198;-67
2023/10/25 03:25:39;;;;;;;16.67;6.43;;;;;;;;;;5030108;28;20190;-66
2023/10/25 03:28:04;;;;;;;7.87;5.07;;;;;;;;;;5030157;28;20174;-66
2023/10/25 03:30:29;;;;;;;10.97;6.20;;;;;;;;;;5028798;28;20286;-66
2023/10/25 03:32:55;;;;;;;7.93;5.60;;;;;;;;;;5029445;28;20208;-66
2023/10/25 03:35:20;;;;;;;9.03;4.87;;;;;;;;;;5028834;28;20647;-66
2023/10/25 03:37:45;;;;;;;10.37;5.20;;;;;;;;;;5029205;28;20175;-66
2023/10/25 03:40:11;;;;;;;12.50;5.07;;;;;;;;;;5029640;28;20216;-66
2023/10/25 03:42:36;;;;;;;8.63;4.90;;;;;;;;;;5028502;28;20178;-66
2023/10/25 03:45:02;;;;;;;8.13;5.27;;;;;;;;;;5029489;28;20190;-66
2023/10/25 03:47:28;;;;;;;10.20;6.00;;;;;;;;;;5029574;28;20205;-66
2023/10/25 03:49:53;;;;;;;7.07;4.50;;;;;;;;;;5028031;28;20178;-66
2023/10/25 03:52:18;;;;;;;7.93;4.83;;;;;;;;;;5029405;28;20357;-66
2023/10/25 03:54:43;;;;;;;8.17;4.77;;;;;;;;;;5029189;28;20301;-66
2023/10/25 03:57:08;;;;;;;8.83;4.90;;;;;;;;;;5030069;28;20178;-67
2023/10/25 03:59:34;;;;;;;8.63;4.77;;;;;;;;;;5031750;28;20167;-66
2023/10/25 04:01:59;;;;;;;12.40;4.50;;;;;;;;;;5032755;28;20174;-65
2023/10/25 04:04:24;;;;;;;8.70;4.93;;;;;;;;;;5029104;28;20198;-66
2023/10/25 04:06:49;;;;;;;8.60;4.57;;;;;;;;;;5032558;28;20175;-66
2023/10/25 04:09:15;;;;;;;8.13;4.33;;;;;;;;;;5032972;28;20197;-65
2023/10/25 04:11:40;;;;;;;8.93;4.40;;;;;;;;;;5033341;28;20573;-66
2023/10/25 04:14:05;;;;;;;7.53;4.43;;;;;;;;;;5032326;28;20592;-66
2023/10/25 04:16:30;;;;;;;6.83;5.10;;;;;;;;;;5032678;28;20229;-65
2023/10/25 04:18:55;;;;;;;9.70;4.97;;;;;;;;;;5032616;28;20171;-65
2023/10/25 04:21:20;;;;;;;9.73;5.13;;;;;;;;;;5033483;28;20268;-65
2023/10/25 04:23:46;;;;;;;9.83;4.73;;;;;;;;;;5032016;28;20734;-65
2023/10/25 04:26:12;;;;;;;7.63;5.13;;;;;;;;;;5032841;28;20191;-65
2023/10/25 04:28:38;;;;;;;10.40;5.53;;;;;;;;;;5032177;28;20186;-66
2023/10/25 04:31:04;;;;;;;7.63;5.60;;;;;;;;;;5032781;28;20589;-66
2023/10/25 04:33:29;;;;;;;16.23;6.43;;;;;;;;;;5031064;28;20280;-66
2023/10/25 04:35:55;;;;;;;11.37;5.00;;;;;;;;;;5029688;28;20185;-66
2023/10/25 04:38:21;;;;;;;8.40;5.33;;;;;;;;;;5032786;28;20189;-66
2023/10/25 04:40:46;;;;;;;14.13;5.53;;;;;;;;;;5032617;28;20541;-66
2023/10/25 04:43:11;;;;;;;12.97;6.30;;;;;;;;;;5033113;28;20697;-66
2023/10/25 04:45:36;;;;;;;12.20;5.53;;;;;;;;;;5032846;28;20565;-66
2023/10/25 04:48:02;;;;;;;13.33;6.27;;;;;;;;;;5033054;28;20649;-66
2023/10/25 04:50:32;;;;;;;10.57;6.50;;;;;;;;;;5032928;28;20313;-66
2023/10/25 04:52:58;;;;;;;12.67;6.43;;;;;;;;;;5031998;28;20692;-66
2023/10/25 04:55:26;;;;;;;8.87;5.37;;;;;;;;;;5031131;28;20366;-66
2023/10/25 04:57:51;;;;;;;7.93;4.83;;;;;;;;;;5032340;28;20182;-66
2023/10/25 05:00:16;;;;;;;8.97;5.97;;;;;;;;;;5032409;28;20185;-66
2023/10/25 05:02:41;;;;;;;10.00;6.13;;;;;;;;;;5031454;28;20186;-66
2023/10/25 05:05:07;;;;;;;14.17;5.53;;;;;;;;;;5032571;28;20186;-66
2023/10/25 05:07:33;;;;;;;12.43;5.60;;;;;;;;;;5032496;28;20185;-66
2023/10/25 05:09:58;;;;;;;10.40;5.07;;;;;;;;;;5031900;28;20645;-66
2023/10/25 05:12:26;;;;;;;17.50;6.87;;;;;;;;;;5032491;28;20715;-66
2023/10/25 05:14:51;;;;;;;10.77;6.27;;;;;;;;;;5032072;28;20249;-66
2023/10/25 05:17:17;;;;;;;11.33;5.93;;;;;;;;;;5030975;28;20262;-66
2023/10/25 05:19:42;;;;;;;8.17;6.00;;;;;;;;;;5032668;28;20178;-65
2023/10/25 05:22:10;;;;;;;11.73;6.60;;;;;;;;;;5032177;28;20204;-66
2023/10/25 05:24:36;;;;;;;13.30;7.57;;;;;;;;;;5031813;28;20206;-65
2023/10/25 05:27:01;;;;;;;11.17;7.00;;;;;;;;;;5031738;28;20197;-65
2023/10/25 05:29:26;;;;;;;10.90;6.57;;;;;;;;;;5031994;28;20214;-66
2023/10/25 05:31:53;;;;;;;11.17;7.17;;;;;;;;;;5031621;28;20205;-65
2023/10/25 05:34:19;;;;;;;11.10;7.03;;;;;;;;;;5030945;28;20348;-66
2023/10/25 05:36:45;;;;;;;13.60;6.73;;;;;;;;;;5030843;28;20182;-65
2023/10/25 05:39:10;;;;;;;8.93;6.43;;;;;;;;;;5028902;28;20186;-66
2023/10/25 05:41:39;;;;;;;14.90;7.43;;;;;;;;;;5030886;28;20291;-65
2023/10/25 05:44:10;;;;;;;11.87;6.70;;;;;;;;;;5030933;28;20283;-66
2023/10/25 05:46:35;;;;;;;16.13;7.50;;;;;;;;;;5027968;28;20189;-66
2023/10/25 05:49:00;;;;;;;14.90;6.77;;;;;;;;;;5030028;28;20194;-66
2023/10/25 05:51:25;;;;;;;12.70;7.97;;;;;;;;;;5031399;28;20225;-65
2023/10/25 05:53:51;;;;;;;9.97;6.57;;;;;;;;;;5030402;28;20212;-65
2023/10/25 05:56:17;;;;;;;9.00;5.63;;;;;;;;;;5030466;28;20638;-65
2023/10/25 05:58:42;;;;;;;9.47;6.07;;;;;;;;;;5030442;28;20214;-65
2023/10/25 06:01:08;;;;;;;7.43;5.53;;;;;;;;;;5029702;28;20201;-65
2023/10/25 06:03:34;;;;;;;8.03;5.27;;;;;;;;;;5030819;28;20566;-65
2023/10/25 06:06:00;;;;;;;14.63;5.83;;;;;;;;;;5030151;28;20186;-65
2023/10/25 06:08:25;;;;;;;9.57;5.80;;;;;;;;;;5030559;28;20217;-65
2023/10/25 06:10:51;;;;;;;11.87;5.97;;;;;;;;;;5031061;28;20217;-65
2023/10/25 06:13:16;;;;;;;10.90;5.60;;;;;;;;;;5031472;28;20569;-65
2023/10/25 06:15:41;;;;;;;9.07;5.07;;;;;;;;;;5029977;28;20453;-65
2023/10/25 06:18:07;;;;;;;12.70;5.80;;;;;;;;;;5030637;28;20177;-65
2023/10/25 06:20:33;;;;;;;11.10;5.67;;;;;;;;;;5029711;28;20179;-65
2023/10/25 06:22:59;;;;;;;11.00;5.50;;;;;;;;;;5025215;28;20281;-65
2023/10/25 06:25:24;;;;;;;9.10;5.23;;;;;;;;;;5025274;28;20258;-65
2023/10/25 06:27:49;;;;;;;13.17;6.63;;;;;;;;;;5023598;28;20541;-65
2023/10/25 06:30:14;;;;;;;8.93;5.77;;;;;;;;;;5025824;28;20166;-65
2023/10/25 06:32:40;;;;;;;13.90;6.70;;;;;;;;;;5025773;28;20216;-65
2023/10/25 06:35:05;;;;;;;14.07;6.53;;;;;;;;;;5025260;28;20186;-65
2023/10/25 06:37:31;;;;;;;12.80;5.63;;;;;;;;;;5028248;28;20181;-65
2023/10/25 06:39:56;;;;;;;12.37;6.80;;;;;;;;;;5025096;28;20184;-65
2023/10/25 06:42:22;;;;;;;14.10;6.37;;;;;;;;;;5025779;28;20182;-65
2023/10/25 06:44:47;;;;;;;9.13;6.13;;;;;;;;;;5024459;28;20182;-65
2023/10/25 06:47:13;;;;;;;10.00;6.13;;;;;;;;;;5023765;28;20191;-65
2023/10/25 06:49:38;;;;;;;11.73;6.10;;;;;;;;;;5026168;28;20557;-65
2023/10/25 06:52:03;;;;;;;13.33;5.90;;;;;;;;;;5027094;28;20202;-64
2023/10/25 06:54:29;;;;;;;11.73;5.57;;;;;;;;;;5029739;28;20247;-65
2023/10/25 06:56:54;;;;;;;11.00;5.53;;;;;;;;;;5025735;28;20181;-66
2023/10/25 06:59:20;;;;;;;10.13;5.90;;;;;;;;;;5029453;28;20586;-66
2023/10/25 07:01:48;;;;;;;10.57;5.90;;;;;;;;;;5030564;28;20181;-66
2023/10/25 07:04:17;;;;;;;10.73;5.07;;;;;;;;;;5028955;28;20284;-66
2023/10/25 07:06:44;;;;;;;8.17;5.40;;;;;;;;;;5030196;28;20181;-66
2023/10/25 07:09:10;;;;;;;8.70;5.13;;;;;;;;;;5030334;28;20731;-66
2023/10/25 07:11:35;;;;;;;8.13;4.87;;;;;;;;;;5030571;28;20202;-66
2023/10/25 07:14:02;;;;;;;8.93;4.97;;;;;;;;;;5030036;28;20194;-66
2023/10/25 07:16:27;;;;;;;11.93;6.20;;;;;;;;;;5030634;28;20162;-66
2023/10/25 07:18:52;;;;;;;9.30;5.97;;;;;;;;;;5028934;28;20178;-66
2023/10/25 07:21:18;;;;;;;10.70;6.10;;;;;;;;;;5039603;28;20203;-66
2023/10/25 07:23:43;;;;;;;11.30;6.17;;;;;;;;;;5030355;28;20727;-66
2023/10/25 07:26:09;;;;;;;13.10;5.53;;;;;;;;;;5029148;28;20638;-66
2023/10/25 07:28:34;;;;;;;12.23;5.87;;;;;;;;;;5030256;28;20672;-65
2023/10/25 07:30:59;;;;;;;8.70;4.53;;;;;;;;;;5029649;28;20222;-65
2023/10/25 07:33:24;;;;;;;11.43;5.40;;;;;;;;;;5030587;28;20237;-65
2023/10/25 07:35:50;;;;;;;11.17;5.07;;;;;;;;;;5030803;28;20665;-65
2023/10/25 07:38:15;;;;;;;8.53;5.23;;;;;;;;;;5033251;28;20177;-66
2023/10/25 07:40:41;;;;;;;14.43;5.30;;;;;;;;;;5031742;28;20205;-66
2023/10/25 07:43:06;;;;;;;9.07;5.63;;;;;;;;;;5028861;28;20264;-65
2023/10/25 07:45:31;;;;;;;12.10;6.37;;;;;;;;;;5027938;28;20242;-65
2023/10/25 07:47:56;;;;;;;13.00;6.47;;;;;;;;;;5030689;28;20239;-66
2023/10/25 07:50:21;;;;;;;9.27;5.50;;;;;;;;;;5032816;28;20206;-65
2023/10/25 07:52:48;;;;;;;10.73;5.53;;;;;;;;;;5031425;28;20692;-66
2023/10/25 07:55:13;;;;;;;8.43;5.50;;;;;;;;;;5031826;28;20175;-65
2023/10/25 07:57:38;;;;;;;9.33;5.77;;;;;;;;;;5033946;28;20181;-66
2023/10/25 08:00:04;;;;;;;8.00;5.20;;;;;;;;;;5030354;28;20616;-65
2023/10/25 08:02:29;;;;;;;12.80;5.80;;;;;;;;;;5032356;28;20383;-65
2023/10/25 08:04:54;;;;;;;13.80;6.00;;;;;;;;;;5032098;28;20187;-65
2023/10/25 08:07:20;;;;;;;11.20;5.83;;;;;;;;;;5032078;28;20174;-66
2023/10/25 08:09:47;;;;;;;13.43;6.80;;;;;;;;;;5033369;28;20181;-65
2023/10/25 08:12:12;;;;;;;7.32;5.60;;;;;;;;;;5030299;28;20712;-65
2023/10/25 08:14:37;;;;;;;9.30;5.90;;;;;;;;;;5032982;28;20194;-65
2023/10/25 08:17:02;;;;;;;10.52;6.70;;;;;;;;;;5032275;28;20212;-65
2023/10/25 08:19:28;;;;;;;6.37;5.33;;;;;;;;;;5032984;28;20766;-65
2023/10/25 08:21:53;;;;;;;10.27;6.55;;;;;;;;;;5032279;28;20185;-66
2023/10/25 08:24:18;;;;;;;10.40;5.70;;;;;;;;;;5032792;28;20198;-66
2023/10/25 08:26:45;;;;;;;6.80;5.25;;;;;;;;;;5031941;28;20190;-65
2023/10/25 08:29:10;;;;;;;8.60;5.88;;;;;;;;;;5032327;28;20679;-65
2023/10/25 08:31:36;;;;;;;9.67;5.40;;;;;;;;;;5030896;28;20190;-65
2023/10/25 08:34:02;;;;;;;8.87;5.33;;;;;;;;;;5040275;22;20285;-63
2023/10/25 08:36:29;;;;;;;10.30;5.38;;;;;;;;;;5011646;28;20175;-64
2023/10/25 08:38:54;;;;;;;8.13;5.40;;;;;;;;;;5012084;28;20181;-64
2023/10/25 08:41:19;;;;;;;6.97;4.82;;;;;;;;;;5011830;28;20261;-64
2023/10/25 08:43:45;;;;;;;7.30;5.10;;;;;;;;;;5011715;28;20282;-64
2023/10/25 08:46:11;;;;;;;6.75;5.05;;;;;;;;;;5026789;28;20223;-63
2023/10/25 08:48:36;;;;;;;13.88;6.25;;;;;;;;;;5021427;28;20634;-64
2023/10/25 08:51:02;;;;;;;8.80;4.88;;;;;;;;;;5020737;28;20288;-64
2023/10/25 08:53:27;;;;;;;6.93;4.65;;;;;;;;;;5021863;28;20186;-62
2023/10/25 08:55:54;;;;;;;6.80;5.40;;;;;;;;;;5024206;28;20217;-62
2023/10/25 08:58:19;;;;;;;6.82;5.22;;;;;;;;;;5020412;28;20263;-63
2023/10/25 09:00:45;;;;;;;8.07;5.53;;;;;;;;;;5013889;28;20705;-63
2023/10/25 09:03:29;;;;;;;7.05;5.20;;;;;;;;;;5023973;28;20705;-64
2023/10/25 09:05:54;;;;;;;12.05;6.35;;;;;;;;;;5014946;28;20175;-64
2023/10/25 09:08:19;;;;;;;10.85;5.57;;;;;;;;;;5012442;28;20704;-63
2023/10/25 09:10:53;;;;;;;13.88;6.28;;;;;;;;;;5012753;28;20690;-64
2023/10/25 09:13:18;;;;;;;13.43;5.72;;;;;;;;;;5011810;28;20206;-63
2023/10/25 09:15:43;;;;;;;11.50;5.80;;;;;;;;;;5020936;28;20246;-63
2023/10/25 09:18:08;;;;;;;7.00;5.05;;;;;;;;;;5024581;28;20178;-63
2023/10/25 09:20:33;;;;;;;6.65;5.32;;;;;;;;;;5024716;28;20178;-64
2023/10/25 09:23:09;;;;;;;9.00;5.85;;;;;;;;;;5027323;28;20579;-63
2023/10/25 09:25:37;;;;;;;9.00;5.72;;;;;;;;;;5018739;28;20595;-64
2023/10/25 09:28:02;;;;;;;6.43;4.88;;;;;;;;;;5025889;28;20181;-64
2023/10/25 09:30:29;;;;;;;10.23;5.28;;;;;;;;;;5017268;28;20568;-64
2023/10/25 09:32:54;;;;;;;8.52;4.65;;;;;;;;;;5012151;28;20258;-64
2023/10/25 09:35:19;;;;;;;8.35;5.43;;;;;;;;;;5009966;28;20290;-65
2023/10/25 09:37:44;;;;;;;7.38;4.95;;;;;;;;;;5010521;28;20175;-65
2023/10/25 09:40:10;;;;;;;8.43;5.70;;;;;;;;;;5009535;28;20278;-65
2023/10/25 09:42:37;;;;;;;11.13;6.10;;;;;;;;;;5011327;28;20229;-64
2023/10/25 09:45:05;;;;;;;11.55;5.57;;;;;;;;;;5011269;28;20210;-64
2023/10/25 09:47:33;;;;;;;10.93;6.38;;;;;;;;;;5012366;28;20258;-64
2023/10/25 09:50:12;;;;;;;12.88;4.93;;;;;;;;;;5011997;28;20642;-64
2023/10/25 09:52:38;;;;;;;9.27;5.38;;;;;;;;;;5005571;28;20214;-65
2023/10/25 09:55:20;;;;;;;8.77;5.50;;;;;;;;;;5011396;28;20263;-64
2023/10/25 09:57:46;;;;;;;7.28;5.20;;;;;;;;;;5011634;28;20175;-64
2023/10/25 10:00:12;;;;;;;9.60;5.22;;;;;;;;;;5011227;28;20175;-65
2023/10/25 10:02:47;;;;;;;17.60;5.75;;;;;;;;;;5011080;28;20193;-65
2023/10/25 10:05:33;;;;;;;14.48;5.55;;;;;;;;;;5011091;28;20186;-64
2023/10/25 10:08:30;;;;;;;9.02;5.20;;;;;;;;;;5010344;28;20266;-65
2023/10/25 10:10:58;;;;;;;9.77;5.25;;;;;;;;;;4990794;28;20226;-65
2023/10/25 10:13:24;;;;;;;7.93;4.53;;;;;;;;;;5010512;28;20199;-65
2023/10/25 10:16:08;;;;;;;14.70;5.50;;;;;;;;;;5026488;28;20182;-65
2023/10/25 10:18:37;;;;;;;8.27;5.15;;;;;;;;;;5011363;28;20167;-64
2023/10/25 10:21:07;;;;;;;4.90;4.15;;;;;;;;;;5012864;28;20236;-64
2023/10/25 10:23:36;;;;;;;6.55;4.13;;;;;;;;;;5008776;28;20191;-64
2023/10/25 10:26:02;;;;;;;9.27;4.55;;;;;;;;;;5011948;28;20178;-64
2023/10/25 10:28:43;;;;;;;5.60;4.20;;;;;;;;;;5010140;28;20179;-64
2023/10/25 10:31:10;;;;;;;8.30;4.40;;;;;;;;;;5009526;28;20276;-65
2023/10/25 10:33:48;;;;;;;5.88;4.50;;;;;;;;;;5007271;28;20824;-64
2023/10/25 10:36:27;;;;;;;10.88;4.45;;;;;;;;;;5008706;28;20187;-64
2023/10/25 10:39:13;;;;;;;8.77;4.38;;;;;;;;;;5009294;28;20716;-64
2023/10/25 10:41:39;;;;;;;8.30;4.38;;;;;;;;;;5023017;28;20183;-64
2023/10/25 10:44:05;;;;;;;7.53;4.43;;;;;;;;;;5009397;28;20210;-63
2023/10/25 10:46:30;;;;;;;6.40;4.82;;;;;;;;;;5011127;28;20168;-64
2023/10/25 10:49:00;;;;;;;8.80;4.82;;;;;;;;;;5010996;28;20175;-64
2023/10/25 10:51:25;;;;;;;9.68;4.63;;;;;;;;;;5010585;28;20227;-64
2023/10/25 10:53:51;;;;;;;10.23;4.78;;;;;;;;;;5010821;28;20241;-64
2023/10/25 10:56:16;;;;;;;10.32;5.05;;;;;;;;;;5008940;28;20187;-64
2023/10/25 10:58:41;;;;;;;8.70;4.60;;;;;;;;;;5011910;28;20202;-64
2023/10/25 11:01:06;;;;;;;8.82;4.82;;;;;;;;;;5012883;28;20175;-63
2023/10/25 11:03:31;;;;;;;6.50;4.13;;;;;;;;;;5004628;28;20678;-63
2023/10/25 11:05:57;;;;;;;7.72;4.78;;;;;;;;;;5013319;28;20221;-64
2023/10/25 11:08:23;;;;;;;6.60;4.38;;;;;;;;;;5018035;28;20677;-64
2023/10/25 11:10:49;;;;;;;5.75;4.18;;;;;;;;;;5017322;28;20204;-64
2023/10/25 11:13:15;;;;;;;9.02;5.00;;;;;;;;;;5016455;28;20195;-65
2023/10/25 11:15:40;;;;;;;6.15;4.03;;;;;;;;;;5023323;28;20179;-64
2023/10/25 11:18:08;;;;;;;4.80;3.97;;;;;;;;;;5018027;28;20182;-64
2023/10/25 11:20:34;;;;;;;6.28;4.38;;;;;;;;;;5016679;28;20218;-64
2023/10/25 11:22:59;;;;;;;7.57;5.03;;;;;;;;;;5019578;28;20206;-65
2023/10/25 11:25:27;;;;;;;5.43;4.80;;;;;;;;;;5019757;28;20560;-65
2023/10/25 11:27:55;;;;;;;8.05;5.07;;;;;;;;;;5018970;28;20638;-65
2023/10/25 11:30:21;;;;;;;9.90;4.90;;;;;;;;;;5018705;28;20190;-64
2023/10/25 11:32:47;;;;;;;12.00;4.72;;;;;;;;;;5016752;28;20206;-67
2023/10/25 11:35:25;;;;;;;9.85;4.93;;;;;;;;;;5015023;28;20183;-65
2023/10/25 11:37:51;;;;;;;9.23;4.85;;;;;;;;;;5015792;28;20546;-65
2023/10/25 11:40:16;;;;;;;7.32;4.65;;;;;;;;;;5015786;28;20174;-65
2023/10/25 11:42:42;;;;;;;11.32;5.70;;;;;;;;;;5017394;28;20175;-64
2023/10/25 11:45:08;;;;;;;9.55;4.82;;;;;;;;;;5017187;28;20183;-65
2023/10/25 11:47:33;;;;;;;11.00;5.15;;;;;;;;;;5016033;28;20189;-65
2023/10/25 11:49:59;;;;;;;8.40;5.38;;;;;;;;;;5017895;28;20218;-65
2023/10/25 11:52:26;;;;;;;8.98;5.35;;;;;;;;;;5018899;28;20209;-65
2023/10/25 11:54:55;;;;;;;7.15;4.72;;;;;;;;;;5019016;28;20210;-66
2023/10/25 11:57:21;;;;;;;10.02;5.25;;;;;;;;;;5019680;28;20550;-64
2023/10/25 11:59:46;;;;;;;8.05;5.05;;;;;;;;;;5017759;28;20240;-64
2023/10/25 12:02:11;;;;;;;6.40;4.90;;;;;;;;;;5018153;28;20269;-65
2023/10/25 12:04:37;;;;;;;7.35;5.50;;;;;;;;;;5014449;28;20199;-65
2023/10/25 12:07:02;;;;;;;11.35;5.05;;;;;;;;;;5020360;28;20186;-65
2023/10/25 12:09:27;;;;;;;7.18;4.65;;;;;;;;;;5017389;28;20190;-64
2023/10/25 12:11:52;;;;;;;6.75;5.03;;;;;;;;;;5015496;28;20213;-65
2023/10/25 12:14:17;;;;;;;10.00;5.13;;;;;;;;;;5015920;28;20670;-65
2023/10/25 12:16:43;;;;;;;8.40;4.93;;;;;;;;;;5016185;28;20182;-65
2023/10/25 12:19:08;;;;;;;9.18;4.70;;;;;;;;;;5013760;28;20584;-65
2023/10/25 12:21:33;;;;;;;6.30;4.72;;;;;;;;;;5015100;28;20272;-65
2023/10/25 12:23:58;;;;;;;10.95;5.72;;;;;;;;;;5016571;28;20256;-65
2023/10/25 12:26:23;;;;;;;8.48;5.10;;;;;;;;;;5016183;28;20567;-65
2023/10/25 12:28:49;;;;;;;7.63;5.07;;;;;;;;;;5015877;28;20187;-65
2023/10/25 12:31:14;;;;;;;11.60;5.65;;;;;;;;;;5015399;28;20198;-64
2023/10/25 12:33:39;;;;;;;7.32;5.80;;;;;;;;;;5011591;28;20214;-65
2023/10/25 12:36:04;;;;;;;9.80;5.32;;;;;;;;;;5012214;28;20225;-64
2023/10/25 12:38:29;;;;;;;9.02;4.97;;;;;;;;;;5012206;28;20244;-65
2023/10/25 12:40:55;;;;;;;9.07;5.00;;;;;;;;;;5016702;28;20182;-65
2023/10/25 12:43:20;;;;;;;9.40;4.55;;;;;;;;;;5012450;28;20292;-65
2023/10/25 12:45:45;;;;;;;10.13;5.78;;;;;;;;;;5009225;28;20557;-64
2023/10/25 12:48:10;;;;;;;7.20;6.03;;;;;;;;;;5011962;28;20677;-64
2023/10/25 12:50:36;;;;;;;8.40;4.85;;;;;;;;;;5014353;28;20273;-64
2023/10/25 12:53:02;;;;;;;5.93;5.07;;;;;;;;;;5016916;28;20279;-65
2023/10/25 12:55:27;;;;;;;8.48;4.55;;;;;;;;;;5019115;28;20669;-65
2023/10/25 12:57:53;;;;;;;7.93;5.13;;;;;;;;;;5015664;28;20179;-65
2023/10/25 13:00:18;;;;;;;6.90;4.50;;;;;;;;;;5015698;28;20191;-64
2023/10/25 13:02:43;;;;;;;10.13;5.75;;;;;;;;;;5015463;28;20193;-65
2023/10/25 13:05:08;;;;;;;6.70;5.65;;;;;;;;;;5019678;28;20182;-64
2023/10/25 13:07:33;;;;;;;9.65;5.28;;;;;;;;;;5016578;28;20190;-64
2023/10/25 13:09:59;;;;;;;10.98;6.53;;;;;;;;;;5017925;28;20175;-64
2023/10/25 13:12:24;;;;;;;8.27;4.75;;;;;;;;;;5014805;28;20238;-64
2023/10/25 13:14:49;;;;;;;8.05;5.43;;;;;;;;;;5011290;28;20202;-64
2023/10/25 13:17:15;;;;;;;8.40;5.18;;;;;;;;;;5014460;28;20659;-64
2023/10/25 13:19:40;;;;;;;6.43;5.13;;;;;;;;;;5012883;28;20210;-63
2023/10/25 13:22:06;;;;;;;10.27;6.05;;;;;;;;;;5015884;28;20622;-64
2023/10/25 13:24:31;;;;;;;9.40;5.82;;;;;;;;;;5019694;28;20204;-63
2023/10/25 13:26:56;;;;;;;9.27;5.93;;;;;;;;;;5015230;28;20179;-63
2023/10/25 13:29:21;;;;;;;10.57;5.65;;;;;;;;;;5019678;28;20648;-64
2023/10/25 13:31:47;;;;;;;9.32;5.78;;;;;;;;;;5011825;28;20195;-65
2023/10/25 13:34:12;;;;;;;10.23;5.53;;;;;;;;;;5011182;28;20226;-64
2023/10/25 13:36:37;;;;;;;7.47;5.10;;;;;;;;;;5010295;28;20611;-64
2023/10/25 13:39:03;;;;;;;10.23;5.95;;;;;;;;;;5010950;28;20186;-65
2023/10/25 13:41:28;;;;;;;8.85;5.97;;;;;;;;;;5016522;28;20174;-64
2023/10/25 13:43:53;;;;;;;7.82;5.03;;;;;;;;;;5019675;28;20693;-64
2023/10/25 13:46:19;;;;;;;9.57;6.05;;;;;;;;;;5012056;28;20211;-63
2023/10/25 13:48:45;;;;;;;10.77;5.63;;;;;;;;;;5011470;28;20183;-64
2023/10/25 13:51:10;;;;;;;13.93;5.82;;;;;;;;;;5010954;28;20273;-64
2023/10/25 13:53:38;;;;;;;10.95;5.45;;;;;;;;;;5014389;28;20583;-64
2023/10/25 13:56:04;;;;;;;8.38;5.20;;;;;;;;;;5018807;28;20213;-63
2023/10/25 13:58:30;;;;;;;6.47;5.00;;;;;;;;;;5017673;28;20179;-64
2023/10/25 14:00:56;;;;;;;8.65;5.25;;;;;;;;;;5013132;28;20186;-64
2023/10/25 14:03:21;;;;;;;9.38;5.43;;;;;;;;;;5014115;28;20198;-62
2023/10/25 14:05:46;;;;;;;7.30;5.13;;;;;;;;;;5013120;28;20183;-64
2023/10/25 14:08:12;;;;;;;6.47;4.82;;;;;;;;;;5031012;28;20183;-64
2023/10/25 14:10:46;;;;;;;7.95;5.28;;;;;;;;;;5014840;28;20647;-64
2023/10/25 14:13:12;;;;;;;6.35;5.30;;;;;;;;;;5017136;28;20198;-64
2023/10/25 14:15:38;;;;;;;7.07;5.07;;;;;;;;;;5014879;28;20685;-63
2023/10/25 14:18:03;;;;;;;8.52;5.20;;;;;;;;;;5011506;28;20273;-65
2023/10/25 14:20:28;;;;;;;7.47;4.93;;;;;;;;;;5009926;28;20526;-64
2023/10/25 14:22:54;;;;;;;7.05;5.03;;;;;;;;;;5011749;28;20229;-65
2023/10/25 14:25:19;;;;;;;8.52;5.22;;;;;;;;;;5016439;28;20844;-64
2023/10/25 14:27:44;;;;;;;9.00;5.72;;;;;;;;;;5018298;28;21136;-64
2023/10/25 14:30:09;;;;;;;7.07;5.53;;;;;;;;;;5017173;28;20182;-65